createdAt,value
2018-07-16T09:31:17.460Z,67.45
2018-07-16T09:33:45.541Z,67.11
2018-07-16T09:36:13.617Z,66.14
2018-07-16T09:38:41.664Z,63.59
2018-07-16T09:41:09.727Z,63.12
2018-07-16T09:43:37.793Z,64.72
2018-07-16T09:46:05.873Z,59.63
2018-07-16T09:48:33.946Z,62.65
2018-07-16T09:51:02.013Z,64.44
2018-07-16T09:53:30.171Z,65.96
2018-07-16T09:55:58.308Z,63.72
2018-07-16T09:58:26.317Z,62.47
2018-07-16T10:00:59.752Z,64.06
2018-07-16T10:03:27.836Z,62.20
2018-07-16T10:05:55.911Z,59.73
2018-07-16T10:08:24.028Z,59.07
2018-07-16T10:10:52.042Z,60.20
2018-07-16T10:13:20.108Z,59.60
2018-07-16T10:15:48.245Z,57.33
2018-07-16T10:18:16.325Z,58.30
2018-07-16T10:20:44.409Z,58.80
2018-07-16T10:23:12.465Z,57.90
2018-07-16T10:25:40.559Z,59.24
2018-07-16T10:28:08.612Z,58.50
2018-07-16T10:30:36.684Z,58.67
2018-07-16T10:33:04.753Z,58.89
2018-07-16T10:35:32.964Z,57.31
2018-07-16T10:38:01.044Z,58.46
2018-07-16T10:40:29.110Z,56.66
2018-07-16T10:42:57.179Z,56.01
2018-07-16T10:45:25.264Z,54.68
2018-07-16T10:47:53.344Z,55.26
2018-07-16T10:50:21.420Z,53.84
2018-07-16T10:52:49.507Z,55.97
2018-07-16T10:55:17.712Z,53.22
2018-07-16T10:57:45.723Z,53.43
2018-07-16T11:00:13.794Z,54.38
2018-07-16T11:02:41.872Z,55.00
2018-07-16T11:05:09.973Z,54.27
2018-07-16T11:07:38.060Z,51.96
2018-07-16T11:10:06.196Z,50.49
2018-07-16T11:12:34.255Z,51.93
2018-07-16T11:15:02.377Z,53.37
2018-07-16T11:17:30.399Z,50.47
2018-07-16T11:19:58.472Z,50.34
2018-07-16T11:22:26.515Z,49.85
2018-07-16T11:24:54.604Z,51.29
2018-07-16T11:27:22.676Z,49.90
2018-07-16T11:29:50.748Z,51.14
2018-07-16T11:32:18.816Z,46.66
2018-07-16T11:34:47.119Z,44.26
2018-07-16T11:37:15.207Z,45.30
2018-07-16T11:39:43.296Z,45.46
2018-07-16T11:42:11.364Z,44.12
2018-07-16T11:44:39.438Z,47.21
2018-07-16T11:47:07.562Z,43.29
2018-07-16T11:49:35.588Z,44.59
2018-07-16T11:52:03.636Z,45.32
2018-07-16T11:54:31.818Z,43.12
2018-07-16T11:56:59.903Z,44.76
2018-07-16T11:59:28.117Z,44.45
2018-07-16T12:01:56.193Z,42.77
2018-07-16T12:04:24.196Z,43.16
2018-07-16T12:06:52.256Z,43.09
2018-07-16T12:09:20.330Z,43.00
2018-07-16T12:11:48.691Z,42.23
2018-07-16T12:14:16.768Z,42.66
2018-07-16T12:16:44.846Z,42.39
2018-07-16T12:19:12.909Z,44.89
2018-07-16T12:21:40.980Z,40.31
2018-07-16T12:24:09.042Z,42.02
2018-07-16T12:26:37.125Z,41.33
2018-07-16T12:29:05.204Z,43.60
2018-07-16T12:31:33.276Z,40.02
2018-07-16T12:34:01.382Z,40.22
2018-07-16T12:36:29.636Z,40.21
2018-07-16T12:38:57.723Z,39.77
2018-07-16T12:41:25.808Z,40.55
2018-07-16T12:43:53.876Z,41.36
2018-07-16T12:46:21.964Z,40.06
2018-07-16T12:48:50.037Z,41.02
2018-07-16T12:51:18.136Z,41.35
2018-07-16T12:53:46.201Z,40.99
2018-07-16T12:56:14.272Z,40.11
2018-07-16T12:58:42.379Z,40.26
2018-07-16T13:01:10.455Z,39.33
2018-07-16T13:03:38.528Z,40.06
2018-07-16T13:06:07.140Z,38.04
2018-07-16T13:08:35.216Z,38.29
2018-07-16T13:11:03.296Z,37.44
2018-07-16T13:13:31.361Z,39.33
2018-07-16T13:15:59.504Z,39.06
2018-07-16T13:18:27.533Z,40.58
2018-07-16T13:20:55.640Z,40.70
2018-07-16T13:23:23.698Z,40.19
2018-07-16T13:25:51.765Z,38.91
2018-07-16T13:28:19.815Z,39.13
2018-07-16T13:30:47.893Z,39.72
2018-07-16T13:33:15.957Z,40.63
2018-07-16T13:35:44.025Z,40.36
2018-07-16T13:38:12.080Z,40.52
2018-07-16T13:40:40.169Z,38.89
2018-07-16T13:43:08.231Z,39.17
2018-07-16T13:45:36.314Z,39.00
2018-07-16T13:48:04.377Z,37.88
2018-07-16T13:50:32.935Z,38.07
2018-07-16T13:53:00.998Z,38.10
2018-07-16T13:55:29.068Z,37.29
2018-07-16T13:57:57.168Z,35.98
2018-07-16T14:00:25.248Z,36.32
2018-07-16T14:02:53.320Z,37.96
2018-07-16T14:05:21.391Z,38.64
2018-07-16T14:07:49.479Z,37.48
2018-07-16T14:10:17.565Z,35.57
2018-07-16T14:12:45.635Z,38.45
2018-07-16T14:15:13.712Z,40.17
2018-07-16T14:17:41.796Z,43.63
2018-07-16T14:20:09.859Z,39.50
2018-07-16T14:22:38.003Z,38.53
2018-07-16T14:25:06.073Z,39.74
2018-07-16T14:30:08.997Z,38.96
2018-07-16T14:32:37.357Z,38.83
2018-07-16T14:35:05.734Z,38.54
2018-07-16T14:37:34.013Z,38.25
2018-07-16T14:40:02.712Z,36.51
2018-07-16T14:42:31.144Z,35.82
2018-07-16T14:44:59.299Z,36.78
2018-07-16T14:47:27.656Z,36.90
2018-07-16T14:49:56.007Z,35.96
2018-07-16T14:52:24.112Z,36.86
2018-07-16T14:54:52.594Z,35.57
2018-07-16T14:57:20.656Z,36.15
2018-07-16T14:59:48.712Z,37.74
2018-07-16T15:02:16.774Z,40.76
2018-07-16T15:04:45.044Z,36.19
2018-07-16T15:07:13.116Z,37.73
2018-07-16T15:09:41.187Z,37.32
2018-07-16T15:12:09.260Z,37.99
2018-07-16T15:14:37.332Z,37.38
2018-07-16T15:17:05.441Z,35.49
2018-07-16T15:19:33.828Z,35.48
2018-07-16T15:22:01.917Z,34.70
2018-07-16T15:24:30.589Z,35.18
2018-07-16T15:26:58.689Z,34.57
2018-07-16T15:29:26.754Z,34.68
2018-07-16T15:31:54.853Z,34.58
2018-07-16T15:34:23.968Z,34.13
2018-07-16T15:36:52.062Z,33.14
2018-07-16T15:39:20.124Z,33.81
2018-07-16T15:41:48.176Z,34.90
2018-07-16T15:44:16.248Z,34.53
2018-07-16T15:46:44.339Z,34.60
2018-07-16T15:49:12.403Z,33.91
2018-07-16T15:51:40.485Z,34.36
2018-07-16T15:54:08.627Z,35.00
2018-07-16T15:56:37.469Z,33.70
2018-07-16T15:59:05.557Z,34.46
2018-07-16T16:01:33.620Z,34.41
2018-07-16T16:04:01.783Z,33.93
2018-07-16T16:06:29.839Z,33.55
2018-07-16T16:08:57.950Z,33.33
2018-07-16T16:11:26.020Z,34.64
2018-07-16T16:13:54.108Z,34.60
2018-07-16T16:16:22.220Z,34.91
2018-07-16T16:18:50.256Z,34.37
2018-07-16T16:21:18.316Z,34.78
2018-07-16T16:23:46.412Z,34.91
2018-07-16T16:26:14.523Z,34.54
2018-07-16T16:28:42.540Z,35.10
2018-07-16T16:31:10.593Z,35.27
2018-07-16T16:33:38.661Z,34.64
2018-07-16T16:36:06.784Z,35.14
2018-07-16T16:38:34.852Z,35.01
2018-07-16T16:41:02.924Z,34.40
2018-07-16T16:43:31.010Z,34.80
2018-07-16T16:45:59.068Z,34.85
2018-07-16T16:48:27.164Z,34.60
2018-07-16T16:50:55.250Z,35.67
2018-07-16T16:53:23.311Z,34.94
2018-07-16T16:55:51.394Z,34.27
2018-07-16T16:58:19.498Z,35.21
2018-07-16T17:00:47.581Z,35.88
2018-07-16T17:03:15.672Z,34.68
2018-07-16T17:05:44.015Z,34.84
2018-07-16T17:08:12.092Z,35.79
2018-07-16T17:10:40.165Z,35.22
2018-07-16T17:22:54.377Z,34.83
2018-07-16T17:25:22.632Z,34.94
2018-07-16T17:27:50.682Z,35.06
2018-07-16T17:30:18.773Z,36.24
2018-07-16T17:32:46.846Z,36.13
2018-07-16T17:35:14.917Z,36.27
2018-07-16T17:37:43.924Z,36.46
2018-07-16T17:40:12.001Z,36.77
2018-07-16T17:42:40.067Z,36.70
2018-07-16T17:45:08.141Z,37.87
2018-07-16T17:47:36.200Z,37.59
2018-07-16T17:50:04.272Z,38.36
2018-07-16T17:52:33.337Z,37.87
2018-07-16T17:55:01.408Z,37.96
2018-07-16T17:57:29.485Z,38.59
2018-07-16T17:59:57.553Z,38.11
2018-07-16T18:02:25.620Z,37.83
2018-07-16T18:04:53.680Z,38.35
2018-07-16T18:07:22.497Z,38.91
2018-07-16T18:09:52.084Z,39.01
2018-07-16T18:12:20.396Z,39.51
2018-07-16T18:14:48.478Z,40.23
2018-07-16T18:17:16.548Z,39.76
2018-07-16T18:19:44.623Z,40.08
2018-07-16T18:22:12.688Z,40.14
2018-07-16T18:24:41.154Z,40.54
2018-07-16T18:27:09.222Z,40.14
2018-07-16T18:29:37.289Z,40.03
2018-07-16T18:32:05.359Z,40.99
2018-07-16T18:34:33.406Z,41.28
2018-07-16T18:37:01.543Z,40.98
2018-07-16T18:39:29.528Z,41.67
2018-07-16T18:41:57.581Z,42.37
2018-07-16T18:44:25.648Z,42.30
2018-07-16T18:46:53.745Z,42.48
2018-07-16T18:49:21.850Z,42.75
2018-07-16T18:51:49.901Z,44.27
2018-07-16T18:54:17.964Z,44.70
2018-07-16T18:56:46.034Z,44.67
2018-07-16T18:59:14.104Z,45.08
2018-07-16T19:01:42.188Z,45.79
2018-07-16T19:04:10.249Z,45.45
2018-07-16T19:06:39.676Z,47.07
2018-07-16T19:09:08.218Z,47.26
2018-07-16T19:11:36.283Z,47.02
2018-07-16T19:14:04.355Z,47.60
2018-07-16T19:16:32.454Z,47.90
2018-07-16T19:19:00.520Z,48.86
2018-07-16T19:21:28.584Z,49.37
2018-07-16T19:23:56.648Z,49.86
2018-07-16T19:26:24.731Z,50.41
2018-07-16T19:28:52.801Z,50.20
2018-07-16T19:31:20.875Z,50.66
2018-07-16T19:33:48.962Z,51.54
2018-07-16T19:36:17.149Z,51.50
2018-07-16T19:38:45.227Z,52.46
2018-07-16T19:41:13.291Z,52.47
2018-07-16T19:43:41.782Z,52.60
2018-07-16T19:46:09.859Z,52.78
2018-07-16T19:48:37.959Z,52.80
2018-07-16T19:51:06.075Z,52.11
2018-07-16T19:53:34.140Z,52.78
2018-07-16T19:56:02.207Z,52.83
2018-07-16T19:58:30.311Z,52.99
2018-07-16T20:00:58.383Z,53.47
2018-07-16T20:03:26.491Z,54.46
2018-07-16T20:05:54.548Z,55.95
2018-07-16T20:08:23.608Z,55.85
2018-07-16T20:10:51.569Z,55.91
2018-07-16T20:13:19.691Z,55.56
2018-07-16T20:15:47.898Z,55.03
2018-07-16T20:20:54.896Z,53.11
2018-07-16T20:23:22.904Z,52.67
2018-07-16T20:25:51.864Z,51.18
2018-07-16T20:28:19.931Z,51.60
2018-07-16T20:30:48.418Z,51.34
2018-07-16T20:33:16.487Z,51.87
2018-07-16T20:35:44.984Z,51.94
2018-07-16T20:38:13.095Z,52.44
2018-07-16T20:40:41.177Z,51.74
2018-07-16T20:43:09.285Z,52.19
2018-07-16T20:45:37.348Z,51.86
2018-07-16T20:48:05.470Z,52.07
2018-07-16T20:50:33.544Z,52.79
2018-07-16T20:53:01.804Z,52.36
2018-07-16T20:55:30.814Z,52.94
2018-07-16T20:57:59.180Z,52.49
2018-07-16T21:00:27.317Z,53.29
2018-07-16T21:02:55.515Z,52.96
2018-07-16T21:05:23.600Z,54.68
2018-07-16T21:07:51.729Z,54.99
2018-07-16T21:10:19.761Z,54.38
2018-07-16T21:12:47.839Z,56.16
2018-07-16T21:15:16.138Z,56.26
2018-07-16T21:17:44.205Z,55.59
2018-07-16T21:20:13.049Z,56.65
2018-07-16T21:22:41.325Z,57.84
2018-07-16T21:25:10.523Z,56.84
2018-07-16T21:27:38.604Z,57.91
2018-07-16T21:30:06.703Z,58.11
2018-07-16T21:32:34.782Z,58.39
2018-07-16T21:35:02.981Z,58.16
2018-07-16T21:37:31.042Z,58.86
2018-07-16T21:39:59.169Z,58.79
2018-07-16T21:42:27.316Z,58.76
2018-07-16T21:44:55.401Z,58.73
2018-07-16T21:47:23.492Z,59.37
2018-07-16T21:49:51.637Z,59.70
2018-07-16T21:52:19.731Z,59.56
2018-07-16T21:54:47.885Z,60.14
2018-07-16T21:57:15.976Z,59.80
2018-07-16T22:13:09.121Z,60.16
2018-07-16T22:15:37.192Z,61.40
2018-07-16T22:18:05.252Z,61.45
2018-07-16T22:20:33.322Z,61.66
2018-07-16T22:23:01.393Z,62.20
2018-07-16T22:25:29.465Z,62.34
2018-07-16T22:27:57.518Z,63.72
2018-07-16T22:30:25.593Z,63.34
2018-07-16T22:32:53.668Z,64.19
2018-07-16T22:35:21.739Z,63.75
2018-07-16T22:37:49.827Z,64.42
2018-07-16T22:40:18.140Z,64.13
2018-07-16T22:42:46.203Z,64.69
2018-07-16T22:45:14.286Z,64.50
2018-07-16T22:47:42.355Z,65.47
2018-07-16T22:50:10.442Z,66.09
2018-07-16T22:52:38.536Z,66.18
2018-07-16T22:55:06.640Z,66.42
2018-07-16T22:57:34.720Z,65.83
2018-07-16T23:00:02.792Z,66.50
2018-07-16T23:02:31.175Z,67.26
2018-07-16T23:04:59.244Z,67.18
2018-07-16T23:07:27.322Z,67.52
2018-07-16T23:09:55.409Z,67.50
2018-07-16T23:12:23.484Z,67.32
2018-07-16T23:14:51.582Z,68.22
2018-07-16T23:17:20.348Z,68.95
2018-07-16T23:19:48.430Z,69.71
2018-07-16T23:22:16.500Z,69.84
2018-07-16T23:24:44.740Z,70.76
2018-07-16T23:27:12.820Z,71.18
2018-07-16T23:29:40.884Z,71.39
2018-07-16T23:32:08.983Z,70.99
2018-07-16T23:34:37.061Z,71.33
2018-07-16T23:37:05.154Z,72.14
2018-07-16T23:39:33.231Z,72.56
2018-07-16T23:42:01.326Z,73.33
2018-07-16T23:44:29.398Z,73.61
2018-07-16T23:46:57.471Z,73.35
2018-07-16T23:49:25.545Z,73.95
2018-07-16T23:51:53.613Z,74.71
2018-07-16T23:54:22.732Z,75.60
2018-07-16T23:56:50.788Z,74.76
2018-07-16T23:59:18.893Z,74.70
